sensor_id;sensor_type;location;lat;lon;timestamp;temperature;humidity
15959;DHT22;8078;47.822;9.402;2022-07-29T00:02:25;15.30;99.90
15959;DHT22;8078;47.822;9.402;2022-07-29T00:04:50;15.30;99.90
15959;DHT22;8078;47.822;9.402;2022-07-29T00:07:16;15.30;99.90
15959;DHT22;8078;47.822;9.402;2022-07-29T00:09:42;15.30;99.90
15959;DHT22;8078;47.822;9.402;2022-07-29T00:12:07;15.30;99.90
15959;DHT22;8078;47.822;9.402;2022-07-29T00:14:33;15.30;99.90
15959;DHT22;8078;47.822;9.402;2022-07-29T00:16:58;15.40;99.90
15959;DHT22;8078;47.822;9.402;2022-07-29T00:19:24;15.40;99.90
15959;DHT22;8078;47.822;9.402;2022-07-29T00:21:49;15.40;99.90
15959;DHT22;8078;47.822;9.402;2022-07-29T00:24:15;15.40;99.90
15959;DHT22;8078;47.822;9.402;2022-07-29T00:26:41;15.40;99.90
15959;DHT22;8078;47.822;9.402;2022-07-29T00:29:06;15.40;99.90
15959;DHT22;8078;47.822;9.402;2022-07-29T00:31:32;15.40;99.90
15959;DHT22;8078;47.822;9.402;2022-07-29T00:33:57;15.40;99.90
15959;DHT22;8078;47.822;9.402;2022-07-29T00:36:23;15.40;99.90
15959;DHT22;8078;47.822;9.402;2022-07-29T00:38:52;15.40;99.90
15959;DHT22;8078;47.822;9.402;2022-07-29T00:41:18;15.40;99.90
15959;DHT22;8078;47.822;9.402;2022-07-29T00:43:44;15.40;99.90
15959;DHT22;8078;47.822;9.402;2022-07-29T00:46:10;15.30;99.90
15959;DHT22;8078;47.822;9.402;2022-07-29T00:48:35;15.30;99.90
15959;DHT22;8078;47.822;9.402;2022-07-29T00:51:03;15.20;99.90
15959;DHT22;8078;47.822;9.402;2022-07-29T00:53:30;15.30;99.90
15959;DHT22;8078;47.822;9.402;2022-07-29T00:55:56;15.30;99.90
15959;DHT22;8078;47.822;9.402;2022-07-29T00:58:23;15.50;99.90
15959;DHT22;8078;47.822;9.402;2022-07-29T01:00:49;15.60;99.90
15959;DHT22;8078;47.822;9.402;2022-07-29T01:03:15;15.70;99.90
15959;DHT22;8078;47.822;9.402;2022-07-29T01:05:41;15.70;99.90
15959;DHT22;8078;47.822;9.402;2022-07-29T01:08:08;15.70;99.90
15959;DHT22;8078;47.822;9.402;2022-07-29T01:10:38;15.80;99.90
15959;DHT22;8078;47.822;9.402;2022-07-29T01:13:04;15.80;99.90
15959;DHT22;8078;47.822;9.402;2022-07-29T01:15:31;15.90;99.90
15959;DHT22;8078;47.822;9.402;2022-07-29T01:18:03;15.90;99.90
15959;DHT22;8078;47.822;9.402;2022-07-29T01:21:16;15.90;99.90
15959;DHT22;8078;47.822;9.402;2022-07-29T01:23:53;15.90;99.90
15959;DHT22;8078;47.822;9.402;2022-07-29T01:29:34;16.00;99.90
15959;DHT22;8078;47.822;9.402;2022-07-29T01:32:05;16.00;99.90
15959;DHT22;8078;47.822;9.402;2022-07-29T01:34:50;16.00;99.90
15959;DHT22;8078;47.822;9.402;2022-07-29T01:37:26;15.90;99.90
15959;DHT22;8078;47.822;9.402;2022-07-29T01:39:54;15.90;99.90
15959;DHT22;8078;47.822;9.402;2022-07-29T01:42:34;15.80;99.90
15959;DHT22;8078;47.822;9.402;2022-07-29T01:45:08;15.70;99.90
15959;DHT22;8078;47.822;9.402;2022-07-29T01:47:40;15.60;99.90
15959;DHT22;8078;47.822;9.402;2022-07-29T01:50:10;15.50;99.90
15959;DHT22;8078;47.822;9.402;2022-07-29T01:52:39;15.40;99.90
15959;DHT22;8078;47.822;9.402;2022-07-29T01:55:12;15.30;99.90
15959;DHT22;8078;47.822;9.402;2022-07-29T01:57:40;15.20;99.90
15959;DHT22;8078;47.822;9.402;2022-07-29T02:00:08;15.20;99.90
15959;DHT22;8078;47.822;9.402;2022-07-29T02:02:35;15.10;99.90
15959;DHT22;8078;47.822;9.402;2022-07-29T02:05:04;15.00;99.90
15959;DHT22;8078;47.822;9.402;2022-07-29T02:07:31;15.00;99.90
15959;DHT22;8078;47.822;9.402;2022-07-29T02:09:58;14.90;99.90
15959;DHT22;8078;47.822;9.402;2022-07-29T02:12:26;14.90;99.90
15959;DHT22;8078;47.822;9.402;2022-07-29T02:14:53;14.80;99.90
15959;DHT22;8078;47.822;9.402;2022-07-29T02:17:25;14.80;99.90
15959;DHT22;8078;47.822;9.402;2022-07-29T02:19:53;14.80;99.90
15959;DHT22;8078;47.822;9.402;2022-07-29T02:22:21;14.80;99.90
15959;DHT22;8078;47.822;9.402;2022-07-29T02:24:49;14.80;99.90
15959;DHT22;8078;47.822;9.402;2022-07-29T02:27:17;14.80;99.90
15959;DHT22;8078;47.822;9.402;2022-07-29T02:29:45;14.90;99.90
15959;DHT22;8078;47.822;9.402;2022-07-29T02:32:13;15.00;99.90
15959;DHT22;8078;47.822;9.402;2022-07-29T02:34:40;15.10;99.90
15959;DHT22;8078;47.822;9.402;2022-07-29T02:37:09;15.30;99.90
15959;DHT22;8078;47.822;9.402;2022-07-29T02:39:36;15.30;99.90
15959;DHT22;8078;47.822;9.402;2022-07-29T02:42:06;15.50;99.90
15959;DHT22;8078;47.822;9.402;2022-07-29T02:44:34;15.60;99.90
15959;DHT22;8078;47.822;9.402;2022-07-29T02:52:28;15.70;99.90
15959;DHT22;8078;47.822;9.402;2022-07-29T02:55:00;15.90;99.90
15959;DHT22;8078;47.822;9.402;2022-07-29T02:57:33;16.10;99.90
15959;DHT22;8078;47.822;9.402;2022-07-29T03:00:04;16.10;99.90
15959;DHT22;8078;47.822;9.402;2022-07-29T03:02:39;16.20;99.90
15959;DHT22;8078;47.822;9.402;2022-07-29T03:05:09;16.30;99.90
15959;DHT22;8078;47.822;9.402;2022-07-29T03:07:36;16.30;99.90
15959;DHT22;8078;47.822;9.402;2022-07-29T03:10:04;16.20;99.90
15959;DHT22;8078;47.822;9.402;2022-07-29T03:12:31;16.30;99.90
15959;DHT22;8078;47.822;9.402;2022-07-29T03:14:58;16.30;99.90
15959;DHT22;8078;47.822;9.402;2022-07-29T03:17:24;16.20;99.90
15959;DHT22;8078;47.822;9.402;2022-07-29T03:19:50;16.30;99.90
15959;DHT22;8078;47.822;9.402;2022-07-29T03:22:16;16.40;99.90
15959;DHT22;8078;47.822;9.402;2022-07-29T03:24:42;16.40;99.90
15959;DHT22;8078;47.822;9.402;2022-07-29T03:27:07;16.40;99.90
15959;DHT22;8078;47.822;9.402;2022-07-29T03:29:33;16.50;99.90
15959;DHT22;8078;47.822;9.402;2022-07-29T03:31:59;16.50;99.90
15959;DHT22;8078;47.822;9.402;2022-07-29T03:34:25;16.50;99.90
15959;DHT22;8078;47.822;9.402;2022-07-29T03:36:50;16.60;99.90
15959;DHT22;8078;47.822;9.402;2022-07-29T03:39:23;16.40;99.90
15959;DHT22;8078;47.822;9.402;2022-07-29T03:41:52;16.40;99.90
15959;DHT22;8078;47.822;9.402;2022-07-29T03:44:20;16.40;99.90
15959;DHT22;8078;47.822;9.402;2022-07-29T03:46:48;16.40;99.90
15959;DHT22;8078;47.822;9.402;2022-07-29T03:49:16;16.30;99.90
15959;DHT22;8078;47.822;9.402;2022-07-29T03:51:42;16.30;99.90
15959;DHT22;8078;47.822;9.402;2022-07-29T03:54:08;16.40;99.90
15959;DHT22;8078;47.822;9.402;2022-07-29T03:56:39;16.50;99.90
15959;DHT22;8078;47.822;9.402;2022-07-29T03:59:05;16.50;99.90
15959;DHT22;8078;47.822;9.402;2022-07-29T04:01:33;16.40;99.90
15959;DHT22;8078;47.822;9.402;2022-07-29T04:04:03;16.40;99.90
15959;DHT22;8078;47.822;9.402;2022-07-29T04:06:43;16.60;99.90
15959;DHT22;8078;47.822;9.402;2022-07-29T04:09:10;16.70;99.90
15959;DHT22;8078;47.822;9.402;2022-07-29T04:11:38;16.80;99.90
15959;DHT22;8078;47.822;9.402;2022-07-29T04:14:04;16.90;99.90
15959;DHT22;8078;47.822;9.402;2022-07-29T04:16:29;17.10;99.90
15959;DHT22;8078;47.822;9.402;2022-07-29T04:18:55;17.30;99.90
15959;DHT22;8078;47.822;9.402;2022-07-29T04:21:20;17.50;99.90
15959;DHT22;8078;47.822;9.402;2022-07-29T04:23:46;17.50;99.90
15959;DHT22;8078;47.822;9.402;2022-07-29T04:26:16;17.50;99.90
15959;DHT22;8078;47.822;9.402;2022-07-29T04:28:41;17.60;99.90
15959;DHT22;8078;47.822;9.402;2022-07-29T04:31:08;17.60;99.90
15959;DHT22;8078;47.822;9.402;2022-07-29T04:33:34;17.60;99.90
15959;DHT22;8078;47.822;9.402;2022-07-29T04:35:59;17.60;99.90
15959;DHT22;8078;47.822;9.402;2022-07-29T04:38:25;17.50;99.90
15959;DHT22;8078;47.822;9.402;2022-07-29T04:40:50;17.50;99.90
15959;DHT22;8078;47.822;9.402;2022-07-29T04:43:16;17.40;99.90
15959;DHT22;8078;47.822;9.402;2022-07-29T04:45:42;17.50;99.90
15959;DHT22;8078;47.822;9.402;2022-07-29T04:48:07;17.40;99.90
15959;DHT22;8078;47.822;9.402;2022-07-29T04:50:33;17.40;99.90
15959;DHT22;8078;47.822;9.402;2022-07-29T04:52:58;17.30;99.90
15959;DHT22;8078;47.822;9.402;2022-07-29T04:55:24;17.40;99.90
15959;DHT22;8078;47.822;9.402;2022-07-29T04:57:50;17.40;99.90
15959;DHT22;8078;47.822;9.402;2022-07-29T05:00:16;17.30;99.90
15959;DHT22;8078;47.822;9.402;2022-07-29T05:02:42;17.10;99.90
15959;DHT22;8078;47.822;9.402;2022-07-29T05:05:07;16.90;99.90
15959;DHT22;8078;47.822;9.402;2022-07-29T05:07:33;16.70;99.90
15959;DHT22;8078;47.822;9.402;2022-07-29T05:09:59;16.50;99.90
15959;DHT22;8078;47.822;9.402;2022-07-29T05:12:25;16.50;99.90
15959;DHT22;8078;47.822;9.402;2022-07-29T05:14:50;16.40;99.90
15959;DHT22;8078;47.822;9.402;2022-07-29T05:17:16;16.30;99.90
15959;DHT22;8078;47.822;9.402;2022-07-29T05:19:41;16.30;99.90
15959;DHT22;8078;47.822;9.402;2022-07-29T05:22:07;16.30;99.90
15959;DHT22;8078;47.822;9.402;2022-07-29T05:24:33;16.30;99.90
15959;DHT22;8078;47.822;9.402;2022-07-29T05:26:58;16.30;99.90
15959;DHT22;8078;47.822;9.402;2022-07-29T05:29:24;16.30;99.90
15959;DHT22;8078;47.822;9.402;2022-07-29T05:31:49;16.20;99.90
15959;DHT22;8078;47.822;9.402;2022-07-29T05:34:17;16.30;99.90
15959;DHT22;8078;47.822;9.402;2022-07-29T05:36:42;16.30;99.90
15959;DHT22;8078;47.822;9.402;2022-07-29T05:39:08;16.30;99.90
15959;DHT22;8078;47.822;9.402;2022-07-29T05:41:33;16.20;99.90
15959;DHT22;8078;47.822;9.402;2022-07-29T05:43:59;16.20;99.90
15959;DHT22;8078;47.822;9.402;2022-07-29T05:46:24;16.30;99.90
15959;DHT22;8078;47.822;9.402;2022-07-29T05:48:50;16.30;99.90
15959;DHT22;8078;47.822;9.402;2022-07-29T05:51:15;16.40;99.90
15959;DHT22;8078;47.822;9.402;2022-07-29T05:53:41;16.40;99.90
15959;DHT22;8078;47.822;9.402;2022-07-29T05:56:07;16.40;99.90
15959;DHT22;8078;47.822;9.402;2022-07-29T05:58:33;16.30;99.90
15959;DHT22;8078;47.822;9.402;2022-07-29T06:00:59;16.30;99.90
15959;DHT22;8078;47.822;9.402;2022-07-29T06:03:25;16.30;99.90
15959;DHT22;8078;47.822;9.402;2022-07-29T06:05:51;16.40;99.90
15959;DHT22;8078;47.822;9.402;2022-07-29T06:08:17;16.40;99.90
15959;DHT22;8078;47.822;9.402;2022-07-29T06:10:43;16.40;99.90
15959;DHT22;8078;47.822;9.402;2022-07-29T06:13:09;16.50;99.90
15959;DHT22;8078;47.822;9.402;2022-07-29T06:15:34;16.50;99.90
15959;DHT22;8078;47.822;9.402;2022-07-29T06:18:01;16.60;99.90
15959;DHT22;8078;47.822;9.402;2022-07-29T06:20:30;16.80;99.90
15959;DHT22;8078;47.822;9.402;2022-07-29T06:22:56;16.90;99.90
15959;DHT22;8078;47.822;9.402;2022-07-29T06:25:22;17.00;99.90
15959;DHT22;8078;47.822;9.402;2022-07-29T06:27:48;17.20;99.90
15959;DHT22;8078;47.822;9.402;2022-07-29T06:30:13;17.20;99.90
15959;DHT22;8078;47.822;9.402;2022-07-29T06:32:39;17.40;99.90
15959;DHT22;8078;47.822;9.402;2022-07-29T06:35:05;17.50;99.90
15959;DHT22;8078;47.822;9.402;2022-07-29T06:37:31;17.50;99.90
15959;DHT22;8078;47.822;9.402;2022-07-29T06:39:56;17.60;99.90
15959;DHT22;8078;47.822;9.402;2022-07-29T06:42:48;17.60;99.90
15959;DHT22;8078;47.822;9.402;2022-07-29T06:45:13;17.60;99.90
15959;DHT22;8078;47.822;9.402;2022-07-29T06:47:41;17.70;99.90
15959;DHT22;8078;47.822;9.402;2022-07-29T06:50:07;17.80;99.90
15959;DHT22;8078;47.822;9.402;2022-07-29T06:52:36;17.90;99.90
15959;DHT22;8078;47.822;9.402;2022-07-29T06:55:02;18.10;99.90
15959;DHT22;8078;47.822;9.402;2022-07-29T06:57:27;18.10;99.90
15959;DHT22;8078;47.822;9.402;2022-07-29T06:59:53;18.00;99.90
15959;DHT22;8078;47.822;9.402;2022-07-29T07:02:21;17.90;99.90
15959;DHT22;8078;47.822;9.402;2022-07-29T07:04:46;17.90;99.90
15959;DHT22;8078;47.822;9.402;2022-07-29T07:07:12;17.90;99.90
15959;DHT22;8078;47.822;9.402;2022-07-29T07:09:37;17.90;99.90
15959;DHT22;8078;47.822;9.402;2022-07-29T07:12:03;17.90;99.90
15959;DHT22;8078;47.822;9.402;2022-07-29T07:14:29;17.90;99.90
15959;DHT22;8078;47.822;9.402;2022-07-29T07:16:54;17.90;99.90
15959;DHT22;8078;47.822;9.402;2022-07-29T07:19:20;18.10;99.90
15959;DHT22;8078;47.822;9.402;2022-07-29T07:21:46;18.30;99.90
15959;DHT22;8078;47.822;9.402;2022-07-29T07:24:11;18.30;99.90
15959;DHT22;8078;47.822;9.402;2022-07-29T07:26:37;18.50;99.90
15959;DHT22;8078;47.822;9.402;2022-07-29T07:29:04;18.50;99.90
15959;DHT22;8078;47.822;9.402;2022-07-29T07:31:30;18.40;99.90
15959;DHT22;8078;47.822;9.402;2022-07-29T07:33:56;18.30;99.90
15959;DHT22;8078;47.822;9.402;2022-07-29T07:36:22;18.20;99.90
15959;DHT22;8078;47.822;9.402;2022-07-29T07:38:47;18.10;99.90
15959;DHT22;8078;47.822;9.402;2022-07-29T07:41:13;18.10;99.90
15959;DHT22;8078;47.822;9.402;2022-07-29T07:43:38;18.00;99.90
15959;DHT22;8078;47.822;9.402;2022-07-29T07:46:04;17.90;99.90
15959;DHT22;8078;47.822;9.402;2022-07-29T07:48:30;17.90;99.90
15959;DHT22;8078;47.822;9.402;2022-07-29T07:50:55;18.00;99.90
15959;DHT22;8078;47.822;9.402;2022-07-29T07:53:21;18.20;99.90
15959;DHT22;8078;47.822;9.402;2022-07-29T07:55:47;18.40;99.90
15959;DHT22;8078;47.822;9.402;2022-07-29T07:58:12;18.40;99.90
15959;DHT22;8078;47.822;9.402;2022-07-29T08:00:38;18.50;99.90
15959;DHT22;8078;47.822;9.402;2022-07-29T08:03:04;18.70;99.90
15959;DHT22;8078;47.822;9.402;2022-07-29T08:05:30;18.70;99.90
15959;DHT22;8078;47.822;9.402;2022-07-29T08:07:55;18.80;99.90
15959;DHT22;8078;47.822;9.402;2022-07-29T08:10:21;18.90;99.90
15959;DHT22;8078;47.822;9.402;2022-07-29T08:13:06;19.00;99.90
15959;DHT22;8078;47.822;9.402;2022-07-29T08:15:32;19.40;99.90
15959;DHT22;8078;47.822;9.402;2022-07-29T08:17:58;19.50;99.90
15959;DHT22;8078;47.822;9.402;2022-07-29T08:20:24;19.10;99.90
15959;DHT22;8078;47.822;9.402;2022-07-29T08:22:50;18.90;99.90
15959;DHT22;8078;47.822;9.402;2022-07-29T08:25:15;18.90;99.90
15959;DHT22;8078;47.822;9.402;2022-07-29T08:27:41;19.30;99.90
15959;DHT22;8078;47.822;9.402;2022-07-29T08:30:07;19.50;99.90
15959;DHT22;8078;47.822;9.402;2022-07-29T08:32:32;19.20;99.90
15959;DHT22;8078;47.822;9.402;2022-07-29T08:34:58;19.20;99.90
15959;DHT22;8078;47.822;9.402;2022-07-29T08:37:23;19.30;99.90
15959;DHT22;8078;47.822;9.402;2022-07-29T08:39:49;19.50;99.90
15959;DHT22;8078;47.822;9.402;2022-07-29T08:42:15;19.80;99.90
15959;DHT22;8078;47.822;9.402;2022-07-29T08:44:42;19.90;99.90
15959;DHT22;8078;47.822;9.402;2022-07-29T08:47:08;19.80;99.90
15959;DHT22;8078;47.822;9.402;2022-07-29T08:49:35;20.00;99.90
15959;DHT22;8078;47.822;9.402;2022-07-29T08:52:01;19.50;99.90
15959;DHT22;8078;47.822;9.402;2022-07-29T08:54:28;19.40;99.90
15959;DHT22;8078;47.822;9.402;2022-07-29T08:56:54;19.20;99.90
15959;DHT22;8078;47.822;9.402;2022-07-29T08:59:22;19.40;99.90
15959;DHT22;8078;47.822;9.402;2022-07-29T09:01:52;19.30;99.90
15959;DHT22;8078;47.822;9.402;2022-07-29T09:04:19;19.40;99.90
15959;DHT22;8078;47.822;9.402;2022-07-29T09:06:47;19.70;99.90
15959;DHT22;8078;47.822;9.402;2022-07-29T09:09:15;19.60;99.90
15959;DHT22;8078;47.822;9.402;2022-07-29T09:11:42;19.60;99.90
15959;DHT22;8078;47.822;9.402;2022-07-29T09:14:08;19.40;99.90
15959;DHT22;8078;47.822;9.402;2022-07-29T09:19:26;19.50;99.90
15959;DHT22;8078;47.822;9.402;2022-07-29T09:21:53;19.20;99.90
15959;DHT22;8078;47.822;9.402;2022-07-29T09:24:45;19.10;99.90
15959;DHT22;8078;47.822;9.402;2022-07-29T09:27:23;19.00;99.90
15959;DHT22;8078;47.822;9.402;2022-07-29T09:29:59;18.70;99.90
15959;DHT22;8078;47.822;9.402;2022-07-29T09:32:25;18.70;99.90
15959;DHT22;8078;47.822;9.402;2022-07-29T09:37:40;18.40;99.90
15959;DHT22;8078;47.822;9.402;2022-07-29T09:40:20;18.40;99.90
15959;DHT22;8078;47.822;9.402;2022-07-29T09:42:47;18.50;99.90
15959;DHT22;8078;47.822;9.402;2022-07-29T09:45:25;18.40;99.90
15959;DHT22;8078;47.822;9.402;2022-07-29T09:47:51;18.50;99.90
15959;DHT22;8078;47.822;9.402;2022-07-29T09:50:17;18.40;99.90
15959;DHT22;8078;47.822;9.402;2022-07-29T09:52:51;18.40;99.90
15959;DHT22;8078;47.822;9.402;2022-07-29T09:55:18;18.30;99.90
15959;DHT22;8078;47.822;9.402;2022-07-29T09:57:44;18.40;99.90
15959;DHT22;8078;47.822;9.402;2022-07-29T10:00:17;18.40;99.90
15959;DHT22;8078;47.822;9.402;2022-07-29T10:02:46;18.50;99.90
15959;DHT22;8078;47.822;9.402;2022-07-29T10:05:25;18.80;99.90
15959;DHT22;8078;47.822;9.402;2022-07-29T10:07:52;18.70;99.90
15959;DHT22;8078;47.822;9.402;2022-07-29T10:10:23;18.60;99.90
15959;DHT22;8078;47.822;9.402;2022-07-29T10:12:52;18.30;99.90
15959;DHT22;8078;47.822;9.402;2022-07-29T10:15:19;18.20;99.90
15959;DHT22;8078;47.822;9.402;2022-07-29T10:17:46;18.20;99.90
15959;DHT22;8078;47.822;9.402;2022-07-29T10:20:13;18.20;99.90
15959;DHT22;8078;47.822;9.402;2022-07-29T10:22:40;18.10;99.90
15959;DHT22;8078;47.822;9.402;2022-07-29T10:25:07;18.10;99.90
15959;DHT22;8078;47.822;9.402;2022-07-29T10:27:32;18.00;99.90
15959;DHT22;8078;47.822;9.402;2022-07-29T10:29:59;18.00;99.90
15959;DHT22;8078;47.822;9.402;2022-07-29T10:38:43;18.10;99.90
15959;DHT22;8078;47.822;9.402;2022-07-29T10:41:27;18.20;99.90
15959;DHT22;8078;47.822;9.402;2022-07-29T10:44:08;18.40;99.90
15959;DHT22;8078;47.822;9.402;2022-07-29T10:46:35;18.40;99.90
15959;DHT22;8078;47.822;9.402;2022-07-29T11:05:07;20.20;99.90
15959;DHT22;8078;47.822;9.402;2022-07-29T11:07:34;20.20;99.90
15959;DHT22;8078;47.822;9.402;2022-07-29T11:10:24;20.30;99.90
15959;DHT22;8078;47.822;9.402;2022-07-29T11:12:50;20.10;99.90
15959;DHT22;8078;47.822;9.402;2022-07-29T11:15:21;20.30;99.90
15959;DHT22;8078;47.822;9.402;2022-07-29T11:23:31;20.00;99.90
15959;DHT22;8078;47.822;9.402;2022-07-29T11:29:20;19.70;99.90
15959;DHT22;8078;47.822;9.402;2022-07-29T11:31:47;19.70;99.90
15959;DHT22;8078;47.822;9.402;2022-07-29T11:34:24;20.00;99.90
15959;DHT22;8078;47.822;9.402;2022-07-29T11:39:34;20.70;99.90
15959;DHT22;8078;47.822;9.402;2022-07-29T11:47:24;20.60;99.90
15959;DHT22;8078;47.822;9.402;2022-07-29T11:49:51;21.20;99.90
15959;DHT22;8078;47.822;9.402;2022-07-29T11:52:18;22.00;99.90
15959;DHT22;8078;47.822;9.402;2022-07-29T11:54:44;22.70;99.90
15959;DHT22;8078;47.822;9.402;2022-07-29T11:57:11;22.40;99.90
15959;DHT22;8078;47.822;9.402;2022-07-29T11:59:41;22.60;99.90
15959;DHT22;8078;47.822;9.402;2022-07-29T12:02:08;23.50;99.90
15959;DHT22;8078;47.822;9.402;2022-07-29T12:04:47;22.60;99.90
15959;DHT22;8078;47.822;9.402;2022-07-29T12:07:13;22.50;99.90
15959;DHT22;8078;47.822;9.402;2022-07-29T12:09:38;22.30;99.90
15959;DHT22;8078;47.822;9.402;2022-07-29T12:12:04;22.20;99.90
15959;DHT22;8078;47.822;9.402;2022-07-29T12:14:32;22.30;99.90
15959;DHT22;8078;47.822;9.402;2022-07-29T12:16:58;22.60;99.90
15959;DHT22;8078;47.822;9.402;2022-07-29T12:19:25;22.90;99.90
15959;DHT22;8078;47.822;9.402;2022-07-29T12:21:53;22.80;99.90
15959;DHT22;8078;47.822;9.402;2022-07-29T12:24:21;23.70;99.90
15959;DHT22;8078;47.822;9.402;2022-07-29T12:26:51;23.70;99.90
15959;DHT22;8078;47.822;9.402;2022-07-29T12:29:17;23.50;99.90
15959;DHT22;8078;47.822;9.402;2022-07-29T12:31:44;23.40;99.90
15959;DHT22;8078;47.822;9.402;2022-07-29T12:34:15;23.80;99.90
15959;DHT22;8078;47.822;9.402;2022-07-29T12:36:41;24.40;99.90
15959;DHT22;8078;47.822;9.402;2022-07-29T12:39:08;23.00;99.90
15959;DHT22;8078;47.822;9.402;2022-07-29T12:41:34;22.40;99.90
15959;DHT22;8078;47.822;9.402;2022-07-29T12:44:00;22.10;99.90
15959;DHT22;8078;47.822;9.402;2022-07-29T12:46:26;22.90;99.90
15959;DHT22;8078;47.822;9.402;2022-07-29T12:48:53;23.00;99.90
15959;DHT22;8078;47.822;9.402;2022-07-29T12:51:29;22.70;99.90
15959;DHT22;8078;47.822;9.402;2022-07-29T12:54:09;22.40;99.90
15959;DHT22;8078;47.822;9.402;2022-07-29T12:56:39;22.20;99.90
15959;DHT22;8078;47.822;9.402;2022-07-29T12:59:22;22.50;99.90
15959;DHT22;8078;47.822;9.402;2022-07-29T13:01:49;22.40;99.90
15959;DHT22;8078;47.822;9.402;2022-07-29T13:04:32;22.00;99.90
15959;DHT22;8078;47.822;9.402;2022-07-29T13:07:02;21.80;99.90
15959;DHT22;8078;47.822;9.402;2022-07-29T13:09:43;21.70;99.90
15959;DHT22;8078;47.822;9.402;2022-07-29T13:12:12;21.80;99.90
15959;DHT22;8078;47.822;9.402;2022-07-29T13:14:46;21.80;99.90
15959;DHT22;8078;47.822;9.402;2022-07-29T13:17:20;21.70;99.90
15959;DHT22;8078;47.822;9.402;2022-07-29T13:20:03;21.70;99.90
15959;DHT22;8078;47.822;9.402;2022-07-29T13:22:29;21.90;99.90
15959;DHT22;8078;47.822;9.402;2022-07-29T13:24:57;21.70;99.90
15959;DHT22;8078;47.822;9.402;2022-07-29T13:27:30;21.60;99.90
15959;DHT22;8078;47.822;9.402;2022-07-29T13:29:59;21.80;99.90
15959;DHT22;8078;47.822;9.402;2022-07-29T13:32:26;21.50;99.90
15959;DHT22;8078;47.822;9.402;2022-07-29T13:34:53;21.50;99.90
15959;DHT22;8078;47.822;9.402;2022-07-29T13:37:19;21.70;99.90
15959;DHT22;8078;47.822;9.402;2022-07-29T13:39:45;21.60;99.90
15959;DHT22;8078;47.822;9.402;2022-07-29T13:42:11;21.50;99.90
15959;DHT22;8078;47.822;9.402;2022-07-29T13:44:39;21.30;99.90
15959;DHT22;8078;47.822;9.402;2022-07-29T13:47:05;21.40;99.90
15959;DHT22;8078;47.822;9.402;2022-07-29T13:49:31;21.20;99.90
15959;DHT22;8078;47.822;9.402;2022-07-29T13:51:57;21.30;99.90
15959;DHT22;8078;47.822;9.402;2022-07-29T13:54:23;21.10;99.90
15959;DHT22;8078;47.822;9.402;2022-07-29T13:56:50;21.30;99.90
15959;DHT22;8078;47.822;9.402;2022-07-29T13:59:15;21.10;99.90
15959;DHT22;8078;47.822;9.402;2022-07-29T14:01:41;21.00;99.90
15959;DHT22;8078;47.822;9.402;2022-07-29T14:04:08;20.90;99.90
15959;DHT22;8078;47.822;9.402;2022-07-29T14:06:34;20.90;99.90
15959;DHT22;8078;47.822;9.402;2022-07-29T14:08:59;20.90;99.90
15959;DHT22;8078;47.822;9.402;2022-07-29T14:11:25;20.90;99.90
15959;DHT22;8078;47.822;9.402;2022-07-29T14:13:51;20.70;99.90
15959;DHT22;8078;47.822;9.402;2022-07-29T14:16:16;20.50;99.90
15959;DHT22;8078;47.822;9.402;2022-07-29T14:18:42;20.60;99.90
15959;DHT22;8078;47.822;9.402;2022-07-29T14:21:08;20.30;99.90
15959;DHT22;8078;47.822;9.402;2022-07-29T14:23:34;20.30;99.90
15959;DHT22;8078;47.822;9.402;2022-07-29T14:25:59;20.40;99.90
15959;DHT22;8078;47.822;9.402;2022-07-29T14:28:25;20.30;99.90
15959;DHT22;8078;47.822;9.402;2022-07-29T14:30:51;20.20;99.90
15959;DHT22;8078;47.822;9.402;2022-07-29T14:33:16;20.30;99.90
15959;DHT22;8078;47.822;9.402;2022-07-29T14:35:42;20.10;99.90
15959;DHT22;8078;47.822;9.402;2022-07-29T14:38:08;19.40;99.90
15959;DHT22;8078;47.822;9.402;2022-07-29T14:40:34;18.80;99.90
15959;DHT22;8078;47.822;9.402;2022-07-29T14:43:00;18.60;99.90
15959;DHT22;8078;47.822;9.402;2022-07-29T14:45:26;18.30;99.90
15959;DHT22;8078;47.822;9.402;2022-07-29T14:47:53;18.10;99.90
15959;DHT22;8078;47.822;9.402;2022-07-29T14:50:19;17.70;99.90
15959;DHT22;8078;47.822;9.402;2022-07-29T14:52:44;17.50;99.90
15959;DHT22;8078;47.822;9.402;2022-07-29T14:55:10;17.30;99.90
15959;DHT22;8078;47.822;9.402;2022-07-29T14:57:35;17.10;99.90
15959;DHT22;8078;47.822;9.402;2022-07-29T15:00:03;17.00;99.90
15959;DHT22;8078;47.822;9.402;2022-07-29T15:02:28;16.80;99.90
15959;DHT22;8078;47.822;9.402;2022-07-29T15:04:54;16.70;99.90
15959;DHT22;8078;47.822;9.402;2022-07-29T15:07:20;16.70;99.90
15959;DHT22;8078;47.822;9.402;2022-07-29T15:09:45;16.70;99.90
15959;DHT22;8078;47.822;9.402;2022-07-29T15:12:11;16.70;99.90
15959;DHT22;8078;47.822;9.402;2022-07-29T15:14:37;16.70;99.90
15959;DHT22;8078;47.822;9.402;2022-07-29T15:17:02;16.80;99.90
15959;DHT22;8078;47.822;9.402;2022-07-29T15:19:28;16.80;99.90
15959;DHT22;8078;47.822;9.402;2022-07-29T15:21:54;16.90;99.90
15959;DHT22;8078;47.822;9.402;2022-07-29T15:24:20;17.00;99.90
15959;DHT22;8078;47.822;9.402;2022-07-29T15:26:46;17.20;99.90
15959;DHT22;8078;47.822;9.402;2022-07-29T15:29:13;17.40;99.90
15959;DHT22;8078;47.822;9.402;2022-07-29T15:31:39;17.50;99.90
15959;DHT22;8078;47.822;9.402;2022-07-29T15:34:04;17.40;99.90
15959;DHT22;8078;47.822;9.402;2022-07-29T15:36:30;17.20;99.90
15959;DHT22;8078;47.822;9.402;2022-07-29T15:38:56;17.20;99.90
15959;DHT22;8078;47.822;9.402;2022-07-29T15:41:21;17.10;99.90
15959;DHT22;8078;47.822;9.402;2022-07-29T15:43:47;17.00;99.90
15959;DHT22;8078;47.822;9.402;2022-07-29T15:46:15;17.00;99.90
15959;DHT22;8078;47.822;9.402;2022-07-29T15:49:00;16.90;99.90
15959;DHT22;8078;47.822;9.402;2022-07-29T15:51:27;16.90;99.90
15959;DHT22;8078;47.822;9.402;2022-07-29T15:53:52;16.80;99.90
15959;DHT22;8078;47.822;9.402;2022-07-29T15:56:18;16.80;99.90
15959;DHT22;8078;47.822;9.402;2022-07-29T15:58:44;16.80;99.90
15959;DHT22;8078;47.822;9.402;2022-07-29T16:01:09;16.80;99.90
15959;DHT22;8078;47.822;9.402;2022-07-29T16:03:36;16.80;99.90
15959;DHT22;8078;47.822;9.402;2022-07-29T16:06:01;16.70;99.90
15959;DHT22;8078;47.822;9.402;2022-07-29T16:08:27;16.70;99.90
15959;DHT22;8078;47.822;9.402;2022-07-29T16:10:52;16.60;99.90
15959;DHT22;8078;47.822;9.402;2022-07-29T16:13:18;16.60;99.90
15959;DHT22;8078;47.822;9.402;2022-07-29T16:15:44;16.60;99.90
15959;DHT22;8078;47.822;9.402;2022-07-29T16:18:10;16.60;99.90
15959;DHT22;8078;47.822;9.402;2022-07-29T16:20:36;16.60;99.90
15959;DHT22;8078;47.822;9.402;2022-07-29T16:23:02;16.50;99.90
15959;DHT22;8078;47.822;9.402;2022-07-29T16:25:27;16.50;99.90
15959;DHT22;8078;47.822;9.402;2022-07-29T16:27:53;16.60;99.90
15959;DHT22;8078;47.822;9.402;2022-07-29T16:30:19;16.60;99.90
15959;DHT22;8078;47.822;9.402;2022-07-29T16:32:44;16.50;99.90
15959;DHT22;8078;47.822;9.402;2022-07-29T16:35:10;16.50;99.90
15959;DHT22;8078;47.822;9.402;2022-07-29T16:37:36;16.50;99.90
15959;DHT22;8078;47.822;9.402;2022-07-29T16:40:06;16.50;99.90
15959;DHT22;8078;47.822;9.402;2022-07-29T16:42:32;16.50;99.90